sensor_id;sensor_type;location;lat;lon;timestamp;P1;durP1;ratioP1;P2;durP2;ratioP2
73113;SDS011;61301;51.956;5.876;2022-08-18T00:00:03;8.93;;;8.02;;
73113;SDS011;61301;51.956;5.876;2022-08-18T00:02:30;5.63;;;5.13;;
73113;SDS011;61301;51.956;5.876;2022-08-18T00:04:56;6.68;;;6.03;;
73113;SDS011;61301;51.956;5.876;2022-08-18T00:07:25;5.07;;;4.57;;
73113;SDS011;61301;51.956;5.876;2022-08-18T00:09:54;3.85;;;3.55;;
73113;SDS011;61301;51.956;5.876;2022-08-18T00:12:25;4.43;;;3.95;;
73113;SDS011;61301;51.956;5.876;2022-08-18T00:14:57;3.67;;;3.15;;
73113;SDS011;61301;51.956;5.876;2022-08-18T00:17:30;5.18;;;4.43;;
73113;SDS011;61301;51.956;5.876;2022-08-18T00:20:00;7.82;;;7.13;;
73113;SDS011;61301;51.956;5.876;2022-08-18T00:22:26;6.20;;;5.50;;
73113;SDS011;61301;51.956;5.876;2022-08-18T00:24:53;10.57;;;9.55;;
73113;SDS011;61301;51.956;5.876;2022-08-18T00:27:22;6.60;;;6.03;;
73113;SDS011;61301;51.956;5.876;2022-08-18T00:29:53;4.87;;;4.47;;
73113;SDS011;61301;51.956;5.876;2022-08-18T00:32:26;5.55;;;5.05;;
73113;SDS011;61301;51.956;5.876;2022-08-18T00:34:55;5.15;;;4.68;;
73113;SDS011;61301;51.956;5.876;2022-08-18T00:37:22;8.80;;;7.78;;
73113;SDS011;61301;51.956;5.876;2022-08-18T00:39:49;6.15;;;5.55;;
73113;SDS011;61301;51.956;5.876;2022-08-18T00:42:19;8.13;;;7.25;;
73113;SDS011;61301;51.956;5.876;2022-08-18T00:44:50;8.98;;;7.57;;
73113;SDS011;61301;51.956;5.876;2022-08-18T00:47:16;6.97;;;6.25;;
73113;SDS011;61301;51.956;5.876;2022-08-18T00:49:43;4.88;;;4.45;;
73113;SDS011;61301;51.956;5.876;2022-08-18T00:52:11;3.40;;;3.10;;
73113;SDS011;61301;51.956;5.876;2022-08-18T00:54:38;2.88;;;2.67;;
73113;SDS011;61301;51.956;5.876;2022-08-18T00:57:06;2.67;;;1.80;;
73113;SDS011;61301;51.956;5.876;2022-08-18T00:59:37;2.28;;;2.08;;
73113;SDS011;61301;51.956;5.876;2022-08-18T01:02:12;3.97;;;3.67;;
73113;SDS011;61301;51.956;5.876;2022-08-18T01:07:35;6.93;;;5.80;;
73113;SDS011;61301;51.956;5.876;2022-08-18T01:10:06;4.38;;;3.60;;
73113;SDS011;61301;51.956;5.876;2022-08-18T01:12:33;3.55;;;3.20;;
73113;SDS011;61301;51.956;5.876;2022-08-18T01:14:58;5.72;;;5.15;;
73113;SDS011;61301;51.956;5.876;2022-08-18T01:17:25;3.10;;;2.85;;
73113;SDS011;61301;51.956;5.876;2022-08-18T01:20:12;6.13;;;5.47;;
73113;SDS011;61301;51.956;5.876;2022-08-18T01:23:08;7.90;;;7.13;;
73113;SDS011;61301;51.956;5.876;2022-08-18T01:25:38;10.23;;;9.15;;
73113;SDS011;61301;51.956;5.876;2022-08-18T01:28:23;10.88;;;9.82;;
73113;SDS011;61301;51.956;5.876;2022-08-18T01:30:51;7.10;;;6.13;;
73113;SDS011;61301;51.956;5.876;2022-08-18T01:33:23;4.80;;;3.42;;
73113;SDS011;61301;51.956;5.876;2022-08-18T01:35:57;4.28;;;3.88;;
73113;SDS011;61301;51.956;5.876;2022-08-18T01:38:25;4.35;;;3.70;;
73113;SDS011;61301;51.956;5.876;2022-08-18T01:40:51;4.18;;;3.78;;
73113;SDS011;61301;51.956;5.876;2022-08-18T01:43:19;2.03;;;1.67;;
73113;SDS011;61301;51.956;5.876;2022-08-18T01:45:45;4.53;;;4.10;;
73113;SDS011;61301;51.956;5.876;2022-08-18T01:48:12;5.88;;;5.07;;
73113;SDS011;61301;51.956;5.876;2022-08-18T01:50:38;8.05;;;7.30;;
73113;SDS011;61301;51.956;5.876;2022-08-18T01:53:07;5.85;;;5.25;;
73113;SDS011;61301;51.956;5.876;2022-08-18T01:55:37;7.03;;;6.38;;
73113;SDS011;61301;51.956;5.876;2022-08-18T01:58:07;3.70;;;3.00;;
73113;SDS011;61301;51.956;5.876;2022-08-18T02:00:33;4.45;;;3.92;;
73113;SDS011;61301;51.956;5.876;2022-08-18T02:03:01;3.40;;;3.05;;
73113;SDS011;61301;51.956;5.876;2022-08-18T02:05:35;6.45;;;5.47;;
73113;SDS011;61301;51.956;5.876;2022-08-18T02:08:07;2.83;;;2.53;;
73113;SDS011;61301;51.956;5.876;2022-08-18T02:10:33;5.22;;;4.72;;
73113;SDS011;61301;51.956;5.876;2022-08-18T02:12:59;4.68;;;4.22;;
73113;SDS011;61301;51.956;5.876;2022-08-18T02:15:25;5.68;;;3.22;;
73113;SDS011;61301;51.956;5.876;2022-08-18T02:17:52;4.55;;;4.15;;
73113;SDS011;61301;51.956;5.876;2022-08-18T02:20:18;5.43;;;4.70;;
73113;SDS011;61301;51.956;5.876;2022-08-18T02:22:45;4.20;;;3.72;;
73113;SDS011;61301;51.956;5.876;2022-08-18T02:25:13;4.85;;;4.38;;
73113;SDS011;61301;51.956;5.876;2022-08-18T02:27:40;1.63;;;1.52;;
73113;SDS011;61301;51.956;5.876;2022-08-18T02:30:07;2.30;;;1.80;;
73113;SDS011;61301;51.956;5.876;2022-08-18T02:32:35;3.30;;;2.72;;
73113;SDS011;61301;51.956;5.876;2022-08-18T02:35:01;4.07;;;3.67;;
73113;SDS011;61301;51.956;5.876;2022-08-18T02:37:29;4.57;;;3.97;;
73113;SDS011;61301;51.956;5.876;2022-08-18T02:39:55;4.28;;;3.90;;
73113;SDS011;61301;51.956;5.876;2022-08-18T02:42:22;3.75;;;3.45;;
73113;SDS011;61301;51.956;5.876;2022-08-18T02:44:47;3.90;;;3.50;;
73113;SDS011;61301;51.956;5.876;2022-08-18T02:47:13;3.92;;;3.63;;
73113;SDS011;61301;51.956;5.876;2022-08-18T02:49:39;3.20;;;2.90;;
73113;SDS011;61301;51.956;5.876;2022-08-18T02:52:05;2.58;;;2.38;;
73113;SDS011;61301;51.956;5.876;2022-08-18T02:54:31;2.97;;;2.20;;
73113;SDS011;61301;51.956;5.876;2022-08-18T02:56:57;2.13;;;1.92;;
73113;SDS011;61301;51.956;5.876;2022-08-18T02:59:25;3.40;;;3.10;;
73113;SDS011;61301;51.956;5.876;2022-08-18T03:01:53;5.72;;;4.43;;
73113;SDS011;61301;51.956;5.876;2022-08-18T03:04:22;3.28;;;2.97;;
73113;SDS011;61301;51.956;5.876;2022-08-18T03:06:55;2.30;;;2.03;;
73113;SDS011;61301;51.956;5.876;2022-08-18T03:09:22;6.75;;;6.15;;
73113;SDS011;61301;51.956;5.876;2022-08-18T03:11:48;3.20;;;2.90;;
73113;SDS011;61301;51.956;5.876;2022-08-18T03:14:14;4.38;;;3.25;;
73113;SDS011;61301;51.956;5.876;2022-08-18T03:16:44;6.18;;;4.68;;
73113;SDS011;61301;51.956;5.876;2022-08-18T03:19:14;6.70;;;6.05;;
73113;SDS011;61301;51.956;5.876;2022-08-18T03:21:41;2.65;;;2.22;;
73113;SDS011;61301;51.956;5.876;2022-08-18T03:24:12;6.63;;;4.82;;
73113;SDS011;61301;51.956;5.876;2022-08-18T03:26:42;3.15;;;1.90;;
73113;SDS011;61301;51.956;5.876;2022-08-18T03:29:12;8.27;;;5.82;;
73113;SDS011;61301;51.956;5.876;2022-08-18T03:31:38;3.42;;;2.75;;
73113;SDS011;61301;51.956;5.876;2022-08-18T03:34:09;2.00;;;1.63;;
73113;SDS011;61301;51.956;5.876;2022-08-18T03:36:35;1.38;;;1.27;;
73113;SDS011;61301;51.956;5.876;2022-08-18T03:39:06;2.17;;;1.70;;
73113;SDS011;61301;51.956;5.876;2022-08-18T03:41:37;3.22;;;2.72;;
73113;SDS011;61301;51.956;5.876;2022-08-18T03:44:05;3.30;;;2.83;;
73113;SDS011;61301;51.956;5.876;2022-08-18T03:46:31;4.47;;;4.07;;
73113;SDS011;61301;51.956;5.876;2022-08-18T03:48:57;7.72;;;6.38;;
73113;SDS011;61301;51.956;5.876;2022-08-18T03:51:26;5.38;;;3.85;;
73113;SDS011;61301;51.956;5.876;2022-08-18T03:53:57;2.10;;;1.90;;
73113;SDS011;61301;51.956;5.876;2022-08-18T03:56:28;1.45;;;1.35;;
73113;SDS011;61301;51.956;5.876;2022-08-18T03:58:59;4.03;;;3.47;;
73113;SDS011;61301;51.956;5.876;2022-08-18T04:01:29;4.25;;;3.83;;
73113;SDS011;61301;51.956;5.876;2022-08-18T04:03:58;4.80;;;3.30;;
73113;SDS011;61301;51.956;5.876;2022-08-18T04:06:34;3.70;;;2.10;;
73113;SDS011;61301;51.956;5.876;2022-08-18T04:09:12;1.83;;;1.35;;
73113;SDS011;61301;51.956;5.876;2022-08-18T04:11:40;3.72;;;3.42;;
73113;SDS011;61301;51.956;5.876;2022-08-18T04:14:13;2.78;;;2.22;;
73113;SDS011;61301;51.956;5.876;2022-08-18T04:16:42;2.75;;;1.85;;
73113;SDS011;61301;51.956;5.876;2022-08-18T04:19:09;1.80;;;1.70;;
73113;SDS011;61301;51.956;5.876;2022-08-18T04:21:38;3.08;;;1.77;;
73113;SDS011;61301;51.956;5.876;2022-08-18T04:24:09;3.53;;;3.00;;
73113;SDS011;61301;51.956;5.876;2022-08-18T04:26:38;4.72;;;3.88;;
73113;SDS011;61301;51.956;5.876;2022-08-18T04:29:10;2.03;;;1.70;;
73113;SDS011;61301;51.956;5.876;2022-08-18T04:31:37;1.60;;;1.50;;
73113;SDS011;61301;51.956;5.876;2022-08-18T04:34:06;6.65;;;5.25;;
73113;SDS011;61301;51.956;5.876;2022-08-18T04:36:39;5.40;;;4.38;;
73113;SDS011;61301;51.956;5.876;2022-08-18T04:39:12;4.70;;;3.50;;
73113;SDS011;61301;51.956;5.876;2022-08-18T04:41:39;3.97;;;2.85;;
73113;SDS011;61301;51.956;5.876;2022-08-18T04:44:11;6.38;;;4.78;;
73113;SDS011;61301;51.956;5.876;2022-08-18T04:46:46;5.03;;;3.40;;
73113;SDS011;61301;51.956;5.876;2022-08-18T04:49:16;4.38;;;3.85;;
73113;SDS011;61301;51.956;5.876;2022-08-18T04:51:46;4.18;;;2.90;;
73113;SDS011;61301;51.956;5.876;2022-08-18T04:54:34;4.07;;;3.20;;
73113;SDS011;61301;51.956;5.876;2022-08-18T04:57:07;4.20;;;3.80;;
73113;SDS011;61301;51.956;5.876;2022-08-18T04:59:34;2.78;;;2.42;;
73113;SDS011;61301;51.956;5.876;2022-08-18T05:02:00;4.07;;;3.55;;
73113;SDS011;61301;51.956;5.876;2022-08-18T05:04:30;3.08;;;2.75;;
73113;SDS011;61301;51.956;5.876;2022-08-18T05:06:56;5.55;;;5.03;;
73113;SDS011;61301;51.956;5.876;2022-08-18T05:09:22;4.75;;;4.00;;
73113;SDS011;61301;51.956;5.876;2022-08-18T05:11:48;3.72;;;3.30;;
73113;SDS011;61301;51.956;5.876;2022-08-18T05:14:15;6.13;;;3.90;;
73113;SDS011;61301;51.956;5.876;2022-08-18T05:16:42;7.00;;;6.28;;
73113;SDS011;61301;51.956;5.876;2022-08-18T05:19:09;9.02;;;8.13;;
73113;SDS011;61301;51.956;5.876;2022-08-18T05:21:36;7.70;;;5.47;;
73113;SDS011;61301;51.956;5.876;2022-08-18T05:24:07;10.27;;;8.52;;
73113;SDS011;61301;51.956;5.876;2022-08-18T05:26:34;7.57;;;6.05;;
73113;SDS011;61301;51.956;5.876;2022-08-18T05:29:00;9.55;;;6.70;;
73113;SDS011;61301;51.956;5.876;2022-08-18T05:31:28;12.43;;;8.85;;
73113;SDS011;61301;51.956;5.876;2022-08-18T05:33:55;9.25;;;6.47;;
73113;SDS011;61301;51.956;5.876;2022-08-18T05:42:07;8.50;;;5.70;;
73113;SDS011;61301;51.956;5.876;2022-08-18T05:44:41;7.60;;;5.90;;
73113;SDS011;61301;51.956;5.876;2022-08-18T05:47:26;2.92;;;2.40;;
73113;SDS011;61301;51.956;5.876;2022-08-18T05:49:57;2.67;;;2.33;;
73113;SDS011;61301;51.956;5.876;2022-08-18T05:52:31;2.70;;;2.40;;
73113;SDS011;61301;51.956;5.876;2022-08-18T05:55:13;2.42;;;1.67;;
73113;SDS011;61301;51.956;5.876;2022-08-18T05:58:45;1.45;;;1.33;;
73113;SDS011;61301;51.956;5.876;2022-08-18T06:01:00;3.83;;;2.80;;
73113;SDS011;61301;51.956;5.876;2022-08-18T06:03:33;4.82;;;2.72;;
73113;SDS011;61301;51.956;5.876;2022-08-18T06:06:07;2.30;;;2.10;;
73113;SDS011;61301;51.956;5.876;2022-08-18T06:08:46;4.03;;;3.13;;
73113;SDS011;61301;51.956;5.876;2022-08-18T06:11:17;3.75;;;3.35;;
73113;SDS011;61301;51.956;5.876;2022-08-18T06:13:43;3.17;;;2.88;;
73113;SDS011;61301;51.956;5.876;2022-08-18T06:16:15;3.95;;;2.13;;
73113;SDS011;61301;51.956;5.876;2022-08-18T06:21:30;2.78;;;1.45;;
73113;SDS011;61301;51.956;5.876;2022-08-18T06:31:07;2.03;;;1.45;;
73113;SDS011;61301;51.956;5.876;2022-08-18T06:34:34;6.68;;;4.63;;
73113;SDS011;61301;51.956;5.876;2022-08-18T06:40:46;3.00;;;2.57;;
73113;SDS011;61301;51.956;5.876;2022-08-18T06:43:21;6.88;;;3.70;;
73113;SDS011;61301;51.956;5.876;2022-08-18T06:45:50;6.80;;;3.90;;
73113;SDS011;61301;51.956;5.876;2022-08-18T06:49:06;6.38;;;3.92;;
73113;SDS011;61301;51.956;5.876;2022-08-18T06:51:18;4.97;;;3.47;;
73113;SDS011;61301;51.956;5.876;2022-08-18T06:53:58;4.78;;;3.20;;
73113;SDS011;61301;51.956;5.876;2022-08-18T06:56:59;6.82;;;3.83;;
73113;SDS011;61301;51.956;5.876;2022-08-18T06:59:32;5.05;;;3.10;;
73113;SDS011;61301;51.956;5.876;2022-08-18T07:02:20;4.20;;;3.20;;
73113;SDS011;61301;51.956;5.876;2022-08-18T07:05:06;6.72;;;4.05;;
73113;SDS011;61301;51.956;5.876;2022-08-18T07:14:43;4.07;;;2.58;;
73113;SDS011;61301;51.956;5.876;2022-08-18T07:17:07;3.80;;;2.90;;
73113;SDS011;61301;51.956;5.876;2022-08-18T07:19:34;6.13;;;4.03;;
73113;SDS011;61301;51.956;5.876;2022-08-18T07:24:31;8.30;;;4.43;;
73113;SDS011;61301;51.956;5.876;2022-08-18T07:27:15;4.40;;;2.58;;
73113;SDS011;61301;51.956;5.876;2022-08-18T07:32:40;4.82;;;2.75;;
73113;SDS011;61301;51.956;5.876;2022-08-18T07:35:19;3.00;;;2.05;;
73113;SDS011;61301;51.956;5.876;2022-08-18T07:40:36;3.30;;;2.60;;
73113;SDS011;61301;51.956;5.876;2022-08-18T07:43:19;4.18;;;3.00;;
73113;SDS011;61301;51.956;5.876;2022-08-18T07:45:53;2.65;;;2.10;;
73113;SDS011;61301;51.956;5.876;2022-08-18T07:48:30;4.47;;;2.30;;
73113;SDS011;61301;51.956;5.876;2022-08-18T07:53:55;3.30;;;2.92;;
73113;SDS011;61301;51.956;5.876;2022-08-18T07:59:17;3.40;;;1.98;;
73113;SDS011;61301;51.956;5.876;2022-08-18T08:01:48;3.63;;;2.58;;
73113;SDS011;61301;51.956;5.876;2022-08-18T08:07:20;2.45;;;1.85;;
73113;SDS011;61301;51.956;5.876;2022-08-18T08:12:41;3.95;;;2.72;;
73113;SDS011;61301;51.956;5.876;2022-08-18T08:21:09;3.20;;;2.50;;
73113;SDS011;61301;51.956;5.876;2022-08-18T08:23:43;2.10;;;1.90;;
73113;SDS011;61301;51.956;5.876;2022-08-18T08:26:21;3.38;;;1.92;;
73113;SDS011;61301;51.956;5.876;2022-08-18T08:34:09;3.33;;;2.65;;
73113;SDS011;61301;51.956;5.876;2022-08-18T08:36:44;2.55;;;1.60;;
73113;SDS011;61301;51.956;5.876;2022-08-18T08:41:54;3.80;;;2.10;;
73113;SDS011;61301;51.956;5.876;2022-08-18T08:44:28;2.20;;;2.00;;
73113;SDS011;61301;51.956;5.876;2022-08-18T08:47:04;3.15;;;1.55;;
73113;SDS011;61301;51.956;5.876;2022-08-18T08:52:15;2.75;;;2.13;;
73113;SDS011;61301;51.956;5.876;2022-08-18T08:57:36;2.80;;;1.98;;
73113;SDS011;61301;51.956;5.876;2022-08-18T09:00:08;2.35;;;1.88;;
73113;SDS011;61301;51.956;5.876;2022-08-18T09:16:24;2.42;;;1.80;;
73113;SDS011;61301;51.956;5.876;2022-08-18T09:21:58;2.20;;;1.75;;
73113;SDS011;61301;51.956;5.876;2022-08-18T09:24:44;2.28;;;1.98;;
73113;SDS011;61301;51.956;5.876;2022-08-18T09:39:28;1.58;;;1.30;;
73113;SDS011;61301;51.956;5.876;2022-08-18T09:42:06;1.30;;;1.00;;
73113;SDS011;61301;51.956;5.876;2022-08-18T09:47:05;2.72;;;1.55;;
73113;SDS011;61301;51.956;5.876;2022-08-18T09:49:43;2.13;;;1.27;;
73113;SDS011;61301;51.956;5.876;2022-08-18T09:54:57;1.98;;;1.52;;
73113;SDS011;61301;51.956;5.876;2022-08-18T09:57:24;1.90;;;1.60;;
73113;SDS011;61301;51.956;5.876;2022-08-18T09:59:54;3.08;;;1.58;;
73113;SDS011;61301;51.956;5.876;2022-08-18T10:18:41;2.00;;;1.45;;
73113;SDS011;61301;51.956;5.876;2022-08-18T10:21:10;1.48;;;1.02;;
73113;SDS011;61301;51.956;5.876;2022-08-18T10:29:03;1.40;;;1.27;;
73113;SDS011;61301;51.956;5.876;2022-08-18T10:34:35;2.33;;;1.58;;
73113;SDS011;61301;51.956;5.876;2022-08-18T10:39:50;1.30;;;1.20;;
73113;SDS011;61301;51.956;5.876;2022-08-18T10:42:27;3.28;;;1.88;;
73113;SDS011;61301;51.956;5.876;2022-08-18T10:45:43;2.65;;;1.52;;
73113;SDS011;61301;51.956;5.876;2022-08-18T10:48:24;2.33;;;1.80;;
73113;SDS011;61301;51.956;5.876;2022-08-18T10:53:36;2.15;;;1.75;;
73113;SDS011;61301;51.956;5.876;2022-08-18T11:04:40;3.75;;;2.50;;
73113;SDS011;61301;51.956;5.876;2022-08-18T11:07:12;3.15;;;2.20;;
73113;SDS011;61301;51.956;5.876;2022-08-18T11:09:48;3.05;;;2.72;;
73113;SDS011;61301;51.956;5.876;2022-08-18T11:12:33;3.97;;;2.92;;
73113;SDS011;61301;51.956;5.876;2022-08-18T11:21:20;5.30;;;2.78;;
73113;SDS011;61301;51.956;5.876;2022-08-18T11:24:09;5.07;;;2.95;;
73113;SDS011;61301;51.956;5.876;2022-08-18T11:31:57;4.28;;;2.30;;
73113;SDS011;61301;51.956;5.876;2022-08-18T11:34:33;3.47;;;2.83;;
73113;SDS011;61301;51.956;5.876;2022-08-18T11:37:25;4.55;;;3.45;;
73113;SDS011;61301;51.956;5.876;2022-08-18T11:39:57;5.13;;;3.10;;
73113;SDS011;61301;51.956;5.876;2022-08-18T11:42:27;3.85;;;2.58;;
73113;SDS011;61301;51.956;5.876;2022-08-18T11:45:14;5.30;;;2.80;;
73113;SDS011;61301;51.956;5.876;2022-08-18T11:50:49;3.45;;;2.28;;
73113;SDS011;61301;51.956;5.876;2022-08-18T12:06:38;3.03;;;2.00;;
73113;SDS011;61301;51.956;5.876;2022-08-18T12:09:15;3.83;;;2.63;;
73113;SDS011;61301;51.956;5.876;2022-08-18T12:11:49;3.67;;;3.22;;
73113;SDS011;61301;51.956;5.876;2022-08-18T12:14:20;4.28;;;2.58;;
73113;SDS011;61301;51.956;5.876;2022-08-18T12:16:48;4.03;;;2.90;;
73113;SDS011;61301;51.956;5.876;2022-08-18T12:19:15;4.78;;;2.75;;
73113;SDS011;61301;51.956;5.876;2022-08-18T12:21:43;5.55;;;3.00;;
73113;SDS011;61301;51.956;5.876;2022-08-18T12:24:23;3.88;;;2.10;;
73113;SDS011;61301;51.956;5.876;2022-08-18T12:26:51;2.13;;;1.33;;
73113;SDS011;61301;51.956;5.876;2022-08-18T12:29:18;2.55;;;1.95;;
73113;SDS011;61301;51.956;5.876;2022-08-18T12:31:45;1.40;;;1.10;;
73113;SDS011;61301;51.956;5.876;2022-08-18T12:34:12;2.00;;;1.80;;
73113;SDS011;61301;51.956;5.876;2022-08-18T12:36:38;2.75;;;1.92;;
73113;SDS011;61301;51.956;5.876;2022-08-18T12:39:04;2.42;;;1.67;;
73113;SDS011;61301;51.956;5.876;2022-08-18T12:41:31;2.13;;;1.95;;
73113;SDS011;61301;51.956;5.876;2022-08-18T12:43:57;2.10;;;1.90;;
73113;SDS011;61301;51.956;5.876;2022-08-18T12:46:23;1.42;;;1.33;;
73113;SDS011;61301;51.956;5.876;2022-08-18T12:48:49;1.85;;;1.58;;
73113;SDS011;61301;51.956;5.876;2022-08-18T12:51:15;1.27;;;1.17;;
73113;SDS011;61301;51.956;5.876;2022-08-18T12:53:41;1.00;;;0.90;;
73113;SDS011;61301;51.956;5.876;2022-08-18T12:56:16;1.50;;;1.17;;
73113;SDS011;61301;51.956;5.876;2022-08-18T12:58:55;1.00;;;1.00;;
73113;SDS011;61301;51.956;5.876;2022-08-18T13:01:23;2.42;;;1.50;;
73113;SDS011;61301;51.956;5.876;2022-08-18T13:03:52;2.08;;;1.48;;
73113;SDS011;61301;51.956;5.876;2022-08-18T13:06:20;2.80;;;1.80;;
73113;SDS011;61301;51.956;5.876;2022-08-18T13:08:47;1.50;;;1.17;;
73113;SDS011;61301;51.956;5.876;2022-08-18T13:11:15;2.45;;;1.75;;
73113;SDS011;61301;51.956;5.876;2022-08-18T13:13:42;5.10;;;2.22;;
73113;SDS011;61301;51.956;5.876;2022-08-18T13:16:09;3.05;;;1.60;;
73113;SDS011;61301;51.956;5.876;2022-08-18T13:18:36;1.55;;;0.93;;
73113;SDS011;61301;51.956;5.876;2022-08-18T13:21:04;2.28;;;1.60;;
73113;SDS011;61301;51.956;5.876;2022-08-18T13:23:31;3.13;;;1.70;;
73113;SDS011;61301;51.956;5.876;2022-08-18T13:25:58;5.43;;;2.75;;
73113;SDS011;61301;51.956;5.876;2022-08-18T13:28:25;3.60;;;2.70;;
73113;SDS011;61301;51.956;5.876;2022-08-18T13:30:51;2.92;;;2.00;;
73113;SDS011;61301;51.956;5.876;2022-08-18T13:33:18;1.83;;;1.67;;
73113;SDS011;61301;51.956;5.876;2022-08-18T13:35:45;2.50;;;1.92;;
73113;SDS011;61301;51.956;5.876;2022-08-18T13:38:13;3.95;;;2.50;;
73113;SDS011;61301;51.956;5.876;2022-08-18T13:40:40;3.70;;;2.80;;
73113;SDS011;61301;51.956;5.876;2022-08-18T13:43:06;2.00;;;1.50;;
73113;SDS011;61301;51.956;5.876;2022-08-18T13:45:34;7.05;;;3.00;;
73113;SDS011;61301;51.956;5.876;2022-08-18T13:48:00;2.50;;;2.15;;
73113;SDS011;61301;51.956;5.876;2022-08-18T13:50:26;2.50;;;1.65;;
73113;SDS011;61301;51.956;5.876;2022-08-18T13:52:53;1.20;;;1.10;;
73113;SDS011;61301;51.956;5.876;2022-08-18T13:55:19;3.22;;;2.53;;
73113;SDS011;61301;51.956;5.876;2022-08-18T13:57:45;4.53;;;2.88;;
73113;SDS011;61301;51.956;5.876;2022-08-18T14:00:16;4.18;;;2.20;;
73113;SDS011;61301;51.956;5.876;2022-08-18T14:02:45;2.58;;;2.38;;
73113;SDS011;61301;51.956;5.876;2022-08-18T14:05:12;5.05;;;3.30;;
73113;SDS011;61301;51.956;5.876;2022-08-18T14:07:41;4.03;;;3.05;;
73113;SDS011;61301;51.956;5.876;2022-08-18T14:10:08;5.00;;;2.88;;
73113;SDS011;61301;51.956;5.876;2022-08-18T14:12:35;2.83;;;2.38;;
73113;SDS011;61301;51.956;5.876;2022-08-18T14:15:03;1.67;;;1.58;;
73113;SDS011;61301;51.956;5.876;2022-08-18T14:17:32;4.47;;;2.15;;
73113;SDS011;61301;51.956;5.876;2022-08-18T14:19:58;3.20;;;2.22;;
73113;SDS011;61301;51.956;5.876;2022-08-18T14:22:44;3.25;;;2.35;;
73113;SDS011;61301;51.956;5.876;2022-08-18T14:25:29;2.85;;;2.55;;
73113;SDS011;61301;51.956;5.876;2022-08-18T14:28:14;3.55;;;2.40;;
73113;SDS011;61301;51.956;5.876;2022-08-18T14:30:43;2.63;;;2.20;;
73113;SDS011;61301;51.956;5.876;2022-08-18T14:33:11;2.30;;;1.77;;
73113;SDS011;61301;51.956;5.876;2022-08-18T14:35:45;2.38;;;1.90;;
73113;SDS011;61301;51.956;5.876;2022-08-18T14:38:12;3.38;;;2.17;;
73113;SDS011;61301;51.956;5.876;2022-08-18T14:40:39;3.55;;;2.08;;
73113;SDS011;61301;51.956;5.876;2022-08-18T14:43:07;2.38;;;2.17;;
73113;SDS011;61301;51.956;5.876;2022-08-18T14:45:33;2.85;;;2.05;;
73113;SDS011;61301;51.956;5.876;2022-08-18T14:48:00;2.20;;;1.85;;
73113;SDS011;61301;51.956;5.876;2022-08-18T14:50:28;2.47;;;2.00;;
73113;SDS011;61301;51.956;5.876;2022-08-18T14:52:54;2.20;;;2.00;;
73113;SDS011;61301;51.956;5.876;2022-08-18T14:55:20;2.85;;;2.00;;
73113;SDS011;61301;51.956;5.876;2022-08-18T14:57:46;3.33;;;2.28;;
73113;SDS011;61301;51.956;5.876;2022-08-18T15:00:13;2.75;;;2.15;;
73113;SDS011;61301;51.956;5.876;2022-08-18T15:02:43;2.30;;;2.10;;
73113;SDS011;61301;51.956;5.876;2022-08-18T15:05:09;2.65;;;2.08;;
73113;SDS011;61301;51.956;5.876;2022-08-18T15:07:37;3.22;;;2.08;;
73113;SDS011;61301;51.956;5.876;2022-08-18T15:10:04;2.47;;;2.20;;
73113;SDS011;61301;51.956;5.876;2022-08-18T15:12:32;2.17;;;1.80;;
73113;SDS011;61301;51.956;5.876;2022-08-18T15:14:58;2.15;;;1.80;;
73113;SDS011;61301;51.956;5.876;2022-08-18T15:17:25;2.63;;;1.95;;
73113;SDS011;61301;51.956;5.876;2022-08-18T15:19:54;2.70;;;2.22;;
73113;SDS011;61301;51.956;5.876;2022-08-18T15:22:20;1.80;;;1.70;;
73113;SDS011;61301;51.956;5.876;2022-08-18T15:25:05;3.13;;;2.45;;
73113;SDS011;61301;51.956;5.876;2022-08-18T15:27:51;2.33;;;2.03;;
73113;SDS011;61301;51.956;5.876;2022-08-18T15:30:18;2.53;;;2.10;;
73113;SDS011;61301;51.956;5.876;2022-08-18T15:32:45;1.95;;;1.83;;
73113;SDS011;61301;51.956;5.876;2022-08-18T15:35:13;2.20;;;1.70;;
73113;SDS011;61301;51.956;5.876;2022-08-18T15:37:42;1.88;;;1.70;;
73113;SDS011;61301;51.956;5.876;2022-08-18T15:42:42;2.60;;;2.10;;
73113;SDS011;61301;51.956;5.876;2022-08-18T15:45:11;3.88;;;2.28;;
73113;SDS011;61301;51.956;5.876;2022-08-18T15:47:37;2.60;;;2.40;;
73113;SDS011;61301;51.956;5.876;2022-08-18T15:50:05;2.13;;;1.92;;
73113;SDS011;61301;51.956;5.876;2022-08-18T15:52:31;1.73;;;1.63;;
73113;SDS011;61301;51.956;5.876;2022-08-18T15:54:59;1.70;;;1.60;;
73113;SDS011;61301;51.956;5.876;2022-08-18T15:57:26;2.25;;;1.98;;
73113;SDS011;61301;51.956;5.876;2022-08-18T15:59:55;3.00;;;1.60;;
73113;SDS011;61301;51.956;5.876;2022-08-18T16:02:21;1.80;;;1.70;;
73113;SDS011;61301;51.956;5.876;2022-08-18T16:04:49;1.80;;;1.70;;
73113;SDS011;61301;51.956;5.876;2022-08-18T16:07:15;2.15;;;1.85;;
73113;SDS011;61301;51.956;5.876;2022-08-18T16:09:41;1.80;;;1.70;;
73113;SDS011;61301;51.956;5.876;2022-08-18T16:12:07;1.67;;;1.58;;
73113;SDS011;61301;51.956;5.876;2022-08-18T16:14:38;1.95;;;1.85;;
73113;SDS011;61301;51.956;5.876;2022-08-18T16:17:05;2.47;;;2.10;;
73113;SDS011;61301;51.956;5.876;2022-08-18T16:19:31;2.90;;;2.13;;
73113;SDS011;61301;51.956;5.876;2022-08-18T16:21:57;2.20;;;2.05;;
73113;SDS011;61301;51.956;5.876;2022-08-18T16:24:23;2.10;;;1.73;;
73113;SDS011;61301;51.956;5.876;2022-08-18T16:26:48;3.35;;;2.20;;
73113;SDS011;61301;51.956;5.876;2022-08-18T16:29:16;2.15;;;1.90;;
73113;SDS011;61301;51.956;5.876;2022-08-18T16:31:43;2.22;;;1.60;;
73113;SDS011;61301;51.956;5.876;2022-08-18T16:34:09;2.72;;;1.80;;
73113;SDS011;61301;51.956;5.876;2022-08-18T16:36:35;4.18;;;1.90;;
73113;SDS011;61301;51.956;5.876;2022-08-18T16:39:01;2.00;;;1.70;;
73113;SDS011;61301;51.956;5.876;2022-08-18T16:41:28;2.47;;;1.73;;
73113;SDS011;61301;51.956;5.876;2022-08-18T16:43:54;1.83;;;1.10;;
73113;SDS011;61301;51.956;5.876;2022-08-18T16:46:21;5.32;;;2.20;;
73113;SDS011;61301;51.956;5.876;2022-08-18T16:48:51;5.97;;;3.00;;
73113;SDS011;61301;51.956;5.876;2022-08-18T16:51:20;3.67;;;2.20;;
73113;SDS011;61301;51.956;5.876;2022-08-18T16:53:48;3.55;;;2.58;;
73113;SDS011;61301;51.956;5.876;2022-08-18T16:56:27;2.75;;;1.65;;
73113;SDS011;61301;51.956;5.876;2022-08-18T16:58:55;2.08;;;1.38;;
73113;SDS011;61301;51.956;5.876;2022-08-18T17:01:40;1.48;;;1.38;;
73113;SDS011;61301;51.956;5.876;2022-08-18T17:04:26;2.38;;;1.27;;
73113;SDS011;61301;51.956;5.876;2022-08-18T17:06:55;1.52;;;1.40;;
73113;SDS011;61301;51.956;5.876;2022-08-18T17:09:21;2.70;;;2.33;;
73113;SDS011;61301;51.956;5.876;2022-08-18T17:11:48;2.60;;;1.77;;
73113;SDS011;61301;51.956;5.876;2022-08-18T17:14:15;1.83;;;1.48;;
73113;SDS011;61301;51.956;5.876;2022-08-18T17:16:41;1.40;;;1.20;;
73113;SDS011;61301;51.956;5.876;2022-08-18T17:19:08;1.40;;;1.10;;
73113;SDS011;61301;51.956;5.876;2022-08-18T17:21:34;2.08;;;1.35;;
73113;SDS011;61301;51.956;5.876;2022-08-18T17:24:02;2.33;;;1.15;;
73113;SDS011;61301;51.956;5.876;2022-08-18T17:27:18;3.58;;;2.10;;
73113;SDS011;61301;51.956;5.876;2022-08-18T17:29:39;2.33;;;1.40;;
73113;SDS011;61301;51.956;5.876;2022-08-18T17:32:43;1.35;;;1.25;;
73113;SDS011;61301;51.956;5.876;2022-08-18T17:35:25;1.98;;;1.58;;
73113;SDS011;61301;51.956;5.876;2022-08-18T17:41:02;0.88;;;0.80;;
73113;SDS011;61301;51.956;5.876;2022-08-18T17:43:30;1.42;;;1.05;;
73113;SDS011;61301;51.956;5.876;2022-08-18T17:46:07;0.95;;;0.70;;
73113;SDS011;61301;51.956;5.876;2022-08-18T17:48:43;1.20;;;0.93;;
73113;SDS011;61301;51.956;5.876;2022-08-18T17:51:20;2.05;;;1.23;;
73113;SDS011;61301;51.956;5.876;2022-08-18T17:55:00;1.95;;;1.25;;
73113;SDS011;61301;51.956;5.876;2022-08-18T17:56:56;1.10;;;0.95;;
73113;SDS011;61301;51.956;5.876;2022-08-18T17:59:53;0.60;;;0.60;;
73113;SDS011;61301;51.956;5.876;2022-08-18T18:02:42;0.68;;;0.68;;
73113;SDS011;61301;51.956;5.876;2022-08-18T18:05:10;0.93;;;0.80;;